YFH weather

Fort Hope Airport
Fort Hope, Ontario, Canada

Public forecast

Using degrees Celsius for public forecast. Weather courtesy of forecast.io.

Closest aviation weather report (METAR) to Fort Hope Airport

Closest report is Lansdowne House Airport, 38.1 nm (70.5 km) N. Retrieved 2020/06/02 12:15 UTC (8 minutes ago):

CYLH 021215Z AUTO 09008KT 4SM -RA BR OVC004 08/08 A2967 RMK SLP057

Closest aviation forecast (TAF) to Fort Hope Airport

Closest forecast is Pickle Lake Airport, 86.5 nm (160.1 km) W. Retrieved 2020/06/02 08:33 UTC (4 hours ago):

TAF TAF CYPL 020730Z 0208/0220 11008KT P6SM SCT040 BKN090 BECMG 0208/0210 23008KT BECMG 0210/0212 28012KT FM021500 29010KT P6SM BKN040 RMK FCST BASED ON AUTO OBS NXT FCST BY 021400Z